createdAt,value
2023-04-19T00:00:43.078Z,8.82
2023-04-19T00:01:43.135Z,8.79
2023-04-19T00:02:43.233Z,8.80
2023-04-19T00:03:43.353Z,8.93
2023-04-19T00:04:43.293Z,8.94
2023-04-19T00:05:43.216Z,8.89
2023-04-19T00:06:43.253Z,8.85
2023-04-19T00:07:43.286Z,8.94
2023-04-19T00:08:43.310Z,8.93
2023-04-19T00:09:43.376Z,8.91
2023-04-19T00:10:43.371Z,8.89
2023-04-19T00:11:43.412Z,8.93
2023-04-19T00:12:43.464Z,8.88
2023-04-19T00:13:43.476Z,8.82
2023-04-19T00:14:43.502Z,8.93
2023-04-19T00:15:43.531Z,8.86
2023-04-19T00:16:43.601Z,8.88
2023-04-19T00:17:43.661Z,8.89
2023-04-19T00:18:43.616Z,8.93
2023-04-19T00:19:43.650Z,8.93
2023-04-19T00:20:43.684Z,8.91
2023-04-19T00:21:43.718Z,8.94
2023-04-19T00:22:43.742Z,8.94
2023-04-19T00:23:43.771Z,8.86
2023-04-19T00:24:43.810Z,8.91
2023-04-19T00:25:43.830Z,8.91
2023-04-19T00:26:43.865Z,8.83
2023-04-19T00:27:43.896Z,8.88
2023-04-19T00:28:43.931Z,8.85
2023-04-19T00:29:43.966Z,8.89
2023-04-19T00:30:44.024Z,8.93
2023-04-19T00:31:44.040Z,8.97
2023-04-19T00:32:44.065Z,8.98
2023-04-19T00:33:44.075Z,8.86
2023-04-19T00:34:44.112Z,8.96
2023-04-19T00:35:44.141Z,8.86
2023-04-19T00:36:44.171Z,8.93
2023-04-19T00:37:44.200Z,8.86
2023-04-19T00:38:44.248Z,8.86
2023-04-19T00:39:44.287Z,8.88
2023-04-19T00:40:44.293Z,8.85
2023-04-19T00:41:44.321Z,8.83
2023-04-19T00:42:44.358Z,8.89
2023-04-19T00:43:44.395Z,8.88
2023-04-19T00:44:44.417Z,8.93
2023-04-19T00:45:44.479Z,8.89
2023-04-19T00:46:44.589Z,8.88
2023-04-19T00:47:44.540Z,8.88
2023-04-19T00:48:44.542Z,8.91
2023-04-19T00:49:44.585Z,8.88
2023-04-19T00:50:44.618Z,8.83
2023-04-19T00:51:44.628Z,8.83
2023-04-19T00:52:44.664Z,8.88
2023-04-19T00:53:44.689Z,8.83
2023-04-19T00:54:44.721Z,8.85
2023-04-19T00:55:44.752Z,8.82
2023-04-19T00:56:44.791Z,8.85
2023-04-19T00:57:44.812Z,8.88
2023-04-19T00:58:44.844Z,8.85
2023-04-19T00:59:44.940Z,8.88
2023-04-19T01:00:44.915Z,8.80
2023-04-19T01:01:44.976Z,8.88
2023-04-19T01:02:45.064Z,8.82
2023-04-19T01:03:45.128Z,8.82
2023-04-19T01:04:45.028Z,8.80
2023-04-19T01:05:45.094Z,8.85
2023-04-19T01:06:45.100Z,8.79
2023-04-19T01:07:45.117Z,8.76
2023-04-19T01:08:45.151Z,8.80
2023-04-19T01:09:45.254Z,8.80
2023-04-19T01:10:45.216Z,8.73
2023-04-19T01:11:45.247Z,8.67
2023-04-19T01:12:45.286Z,8.64
2023-04-19T01:13:45.306Z,8.73
2023-04-19T01:14:45.337Z,8.70
2023-04-19T01:15:45.413Z,8.71
2023-04-19T01:16:45.401Z,8.68
2023-04-19T01:17:45.454Z,8.58
2023-04-19T01:18:45.459Z,8.60
2023-04-19T01:19:45.490Z,8.67
2023-04-19T01:20:45.515Z,8.49
2023-04-19T01:21:45.547Z,8.57
2023-04-19T01:22:45.587Z,8.50
2023-04-19T01:23:45.606Z,8.47
2023-04-19T01:24:45.645Z,8.45
2023-04-19T01:25:45.693Z,8.46
2023-04-19T01:26:45.757Z,8.46
2023-04-19T01:27:45.831Z,8.45
2023-04-19T01:28:45.787Z,8.50
2023-04-19T01:29:45.798Z,8.45
2023-04-19T01:30:45.830Z,8.43
2023-04-19T01:31:46.042Z,8.43
2023-04-19T01:32:45.926Z,8.50
2023-04-19T01:33:45.921Z,8.40
2023-04-19T01:34:45.943Z,8.46
2023-04-19T01:35:45.983Z,8.40
2023-04-19T01:36:46.009Z,8.40
2023-04-19T01:37:46.039Z,8.37
2023-04-19T01:38:46.066Z,8.29
2023-04-19T01:39:46.107Z,8.29
2023-04-19T01:40:46.132Z,8.34
2023-04-19T01:41:46.159Z,8.45
2023-04-19T01:42:46.198Z,8.32
2023-04-19T01:43:46.236Z,8.29
2023-04-19T01:44:46.265Z,8.36
2023-04-19T01:45:46.292Z,8.29
2023-04-19T01:46:46.424Z,8.36
2023-04-19T01:47:46.362Z,8.37
2023-04-19T01:48:46.384Z,8.28
2023-04-19T01:49:46.412Z,8.25
2023-04-19T01:50:46.440Z,8.28
2023-04-19T01:51:46.466Z,8.29
2023-04-19T01:52:46.507Z,8.37
2023-04-19T01:53:46.524Z,8.31
2023-04-19T01:54:46.558Z,8.21
2023-04-19T01:55:46.585Z,8.21
2023-04-19T01:56:46.630Z,8.27
2023-04-19T01:57:46.652Z,8.22
2023-04-19T01:58:46.676Z,8.21
2023-04-19T01:59:46.706Z,8.21
2023-04-19T02:00:46.771Z,8.27
2023-04-19T02:01:46.782Z,8.22
2023-04-19T02:02:46.905Z,8.27
2023-04-19T02:03:47.186Z,8.21
2023-04-19T02:04:46.863Z,8.06
2023-04-19T02:05:46.889Z,8.07
2023-04-19T02:06:46.927Z,8.18
2023-04-19T02:07:46.957Z,8.09
2023-04-19T02:08:46.992Z,8.06
2023-04-19T02:09:47.021Z,8.12
2023-04-19T02:10:47.062Z,8.04
2023-04-19T02:11:47.071Z,8.04
2023-04-19T02:12:47.111Z,8.07
2023-04-19T02:13:47.143Z,8.12
2023-04-19T02:14:47.171Z,8.03
2023-04-19T02:15:47.206Z,8.14
2023-04-19T02:16:47.271Z,8.09
2023-04-19T02:17:47.317Z,8.06
2023-04-19T02:18:47.312Z,7.96
2023-04-19T02:19:47.335Z,8.00
2023-04-19T02:20:47.350Z,8.03
2023-04-19T02:21:47.375Z,7.95
2023-04-19T02:22:47.408Z,8.06
2023-04-19T02:23:47.466Z,8.04
2023-04-19T02:24:47.493Z,8.02
2023-04-19T02:25:47.654Z,7.94
2023-04-19T02:26:47.530Z,7.88
2023-04-19T02:27:47.563Z,7.92
2023-04-19T02:28:47.589Z,7.92
2023-04-19T02:29:47.619Z,7.86
2023-04-19T02:30:47.651Z,7.84
2023-04-19T02:31:47.717Z,7.86
2023-04-19T02:32:47.778Z,7.84
2023-04-19T02:33:47.740Z,7.85
2023-04-19T02:34:47.775Z,7.91
2023-04-19T02:35:47.803Z,7.94
2023-04-19T02:36:47.828Z,7.88
2023-04-19T02:37:47.872Z,7.85
2023-04-19T02:38:47.923Z,7.81
2023-04-19T02:39:47.923Z,7.81
2023-04-19T02:40:47.954Z,7.77
2023-04-19T02:41:47.981Z,7.82
2023-04-19T02:42:48.016Z,7.79
2023-04-19T02:43:48.042Z,7.76
2023-04-19T02:44:48.081Z,7.73
2023-04-19T02:45:48.124Z,7.73
2023-04-19T02:46:48.194Z,7.70
2023-04-19T02:47:48.278Z,7.71
2023-04-19T02:48:48.321Z,7.71
2023-04-19T02:49:48.306Z,7.67
2023-04-19T02:50:48.330Z,7.69
2023-04-19T02:51:48.323Z,7.62
2023-04-19T02:52:48.332Z,7.63
2023-04-19T02:53:48.365Z,7.58
2023-04-19T02:54:48.436Z,7.69
2023-04-19T02:55:48.449Z,7.58
2023-04-19T02:56:48.460Z,7.58
2023-04-19T02:57:48.468Z,7.51
2023-04-19T02:58:48.495Z,7.45
2023-04-19T02:59:48.520Z,7.45
2023-04-19T03:00:48.557Z,7.44
2023-04-19T03:01:48.799Z,7.42
2023-04-19T03:02:48.731Z,7.48
2023-04-19T03:03:48.835Z,7.52
2023-04-19T03:04:48.672Z,7.42
2023-04-19T03:05:48.708Z,7.37
2023-04-19T03:06:48.742Z,7.44
2023-04-19T03:07:48.763Z,7.44
2023-04-19T03:08:48.801Z,7.39
2023-04-19T03:09:48.832Z,7.36
2023-04-19T03:10:48.858Z,7.33
2023-04-19T03:11:48.903Z,7.29
2023-04-19T03:12:48.932Z,7.27
2023-04-19T03:13:48.941Z,7.29
2023-04-19T03:14:48.974Z,7.32
2023-04-19T03:15:49.046Z,7.18
2023-04-19T03:16:49.031Z,7.23
2023-04-19T03:17:49.101Z,7.23
2023-04-19T03:18:49.720Z,7.26
2023-04-19T03:19:49.123Z,7.34
2023-04-19T03:20:49.149Z,7.21
2023-04-19T03:21:49.200Z,7.24
2023-04-19T03:22:49.220Z,7.23
2023-04-19T03:23:49.240Z,7.15
2023-04-19T03:24:49.305Z,7.21
2023-04-19T03:25:49.299Z,7.24
2023-04-19T03:26:49.332Z,7.21
2023-04-19T03:27:49.358Z,7.09
2023-04-19T03:28:49.381Z,7.15
2023-04-19T03:29:49.420Z,7.15
2023-04-19T03:30:49.445Z,7.12
2023-04-19T03:31:49.616Z,7.19
2023-04-19T03:32:49.712Z,7.14
2023-04-19T03:33:49.528Z,7.09
2023-04-19T03:34:49.557Z,7.09
2023-04-19T03:35:49.676Z,6.99
2023-04-19T03:36:49.622Z,7.08
2023-04-19T03:37:49.664Z,7.08
2023-04-19T03:38:49.773Z,7.07
2023-04-19T03:39:49.705Z,7.09
2023-04-19T03:40:49.735Z,7.00
2023-04-19T03:41:49.779Z,7.04
2023-04-19T03:42:49.800Z,6.96
2023-04-19T03:43:49.823Z,7.07
2023-04-19T03:44:49.860Z,6.97
2023-04-19T03:45:49.982Z,6.96
2023-04-19T03:46:49.914Z,7.01
2023-04-19T03:47:49.979Z,6.90
2023-04-19T03:48:49.977Z,7.00
2023-04-19T03:49:50.011Z,6.99
2023-04-19T03:50:50.029Z,6.94
2023-04-19T03:51:50.067Z,6.97
2023-04-19T03:52:50.089Z,7.04
2023-04-19T03:53:50.117Z,6.82
2023-04-19T03:54:50.148Z,6.87
2023-04-19T03:55:50.178Z,6.87
2023-04-19T03:56:50.207Z,6.86
2023-04-19T03:57:50.247Z,6.91
2023-04-19T03:58:50.264Z,6.90
2023-04-19T03:59:50.305Z,6.93
2023-04-19T04:00:50.330Z,6.91
2023-04-19T04:01:50.402Z,6.87
2023-04-19T04:02:50.587Z,6.89
2023-04-19T04:03:50.671Z,6.91
2023-04-19T04:04:50.572Z,7.00
2023-04-19T04:05:50.476Z,6.90
2023-04-19T04:06:50.502Z,6.93
2023-04-19T04:07:50.541Z,6.91
2023-04-19T04:08:50.582Z,6.91
2023-04-19T04:09:50.610Z,6.93
2023-04-19T04:10:50.621Z,6.90
2023-04-19T04:11:50.656Z,6.87
2023-04-19T04:12:50.677Z,6.90
2023-04-19T04:13:50.813Z,6.83
2023-04-19T04:14:50.741Z,6.87
2023-04-19T04:15:50.853Z,6.86
2023-04-19T04:16:50.835Z,6.89
2023-04-19T04:17:50.866Z,6.83
2023-04-19T04:18:50.856Z,6.75
2023-04-19T04:19:50.886Z,6.79
2023-04-19T04:20:50.923Z,6.76
2023-04-19T04:21:50.941Z,6.81
2023-04-19T04:22:50.972Z,6.73
2023-04-19T04:23:51.016Z,6.82
2023-04-19T04:24:51.057Z,6.89
2023-04-19T04:25:51.103Z,6.87
2023-04-19T04:26:51.112Z,6.87
2023-04-19T04:27:51.136Z,6.86
2023-04-19T04:28:51.162Z,6.94
2023-04-19T04:29:51.186Z,6.94
2023-04-19T04:30:51.222Z,6.90
2023-04-19T04:31:51.284Z,6.86
2023-04-19T04:32:51.428Z,6.86
2023-04-19T04:33:51.317Z,6.75
2023-04-19T04:34:51.355Z,6.86
2023-04-19T04:35:51.381Z,6.90
2023-04-19T04:36:51.402Z,6.83
2023-04-19T04:37:51.439Z,6.87
2023-04-19T04:38:51.460Z,6.87
2023-04-19T04:39:51.493Z,6.96
2023-04-19T04:40:51.527Z,6.91
2023-04-19T04:41:51.554Z,6.91
2023-04-19T04:42:51.582Z,6.83
2023-04-19T04:44:01.325Z,6.93
2023-04-19T04:44:51.669Z,6.86
2023-04-19T04:45:51.688Z,7.00
2023-04-19T04:46:51.728Z,6.87
2023-04-19T04:47:51.852Z,6.89
2023-04-19T04:48:51.761Z,6.94
2023-04-19T04:49:51.791Z,6.91
2023-04-19T04:50:51.820Z,6.89
2023-04-19T04:51:51.860Z,6.93
2023-04-19T04:52:51.888Z,6.83
2023-04-19T04:53:51.913Z,6.91
2023-04-19T04:54:51.944Z,6.87
2023-04-19T04:55:51.970Z,6.90
2023-04-19T04:56:52.016Z,6.91
2023-04-19T04:57:52.044Z,6.97
2023-04-19T04:58:52.057Z,6.86
2023-04-19T04:59:52.092Z,6.90
2023-04-19T05:00:52.141Z,6.90
2023-04-19T05:01:52.146Z,6.86
2023-04-19T05:02:52.265Z,6.93
2023-04-19T05:03:52.302Z,6.99
2023-04-19T05:04:52.249Z,6.99
2023-04-19T05:05:52.262Z,6.99
2023-04-19T05:06:52.304Z,7.00
2023-04-19T05:07:52.318Z,6.96
2023-04-19T05:08:52.360Z,7.12
2023-04-19T05:09:52.382Z,7.08
2023-04-19T05:10:52.414Z,7.04
2023-04-19T05:11:52.437Z,7.07
2023-04-19T05:12:52.466Z,7.09
2023-04-19T05:13:52.502Z,7.09
2023-04-19T05:14:52.619Z,7.14
2023-04-19T05:15:52.580Z,7.15
2023-04-19T05:16:52.662Z,7.15
2023-04-19T05:17:52.757Z,7.14
2023-04-19T05:18:52.657Z,7.15
2023-04-19T05:19:52.683Z,7.15
2023-04-19T05:20:52.703Z,7.23
2023-04-19T05:21:52.748Z,7.21
2023-04-19T05:22:52.764Z,7.18
2023-04-19T05:23:52.800Z,7.18
2023-04-19T05:24:52.825Z,7.11
2023-04-19T05:25:52.854Z,7.30
2023-04-19T05:26:52.877Z,7.19
2023-04-19T05:27:52.909Z,7.30
2023-04-19T05:28:52.942Z,7.29
2023-04-19T05:29:52.995Z,7.30
2023-04-19T05:30:52.999Z,7.27
2023-04-19T05:31:53.113Z,7.26
2023-04-19T05:32:53.091Z,7.29
2023-04-19T05:34:00.346Z,7.33
2023-04-19T05:35:46.343Z,7.47
2023-04-19T05:36:46.316Z,7.57
2023-04-19T05:38:39.512Z,7.55
2023-04-19T05:39:40.601Z,7.55
2023-04-19T05:41:32.664Z,7.51
2023-04-19T05:42:32.694Z,7.58
2023-04-19T05:44:36.812Z,7.60
2023-04-19T05:45:36.800Z,7.54
2023-04-19T05:47:41.027Z,7.74
2023-04-19T05:48:41.001Z,7.81
2023-04-19T05:50:34.176Z,8.03
2023-04-19T05:51:34.191Z,8.09
2023-04-19T05:53:29.231Z,8.24
2023-04-19T05:54:29.246Z,8.24
2023-04-19T05:56:22.416Z,8.47
2023-04-19T05:57:22.434Z,8.47
2023-04-19T05:59:15.609Z,8.47
2023-04-19T06:00:15.618Z,8.65
2023-04-19T06:02:19.874Z,8.63
2023-04-19T06:03:19.846Z,8.79
2023-04-19T06:05:13.032Z,8.80
2023-04-19T06:06:12.984Z,8.97
2023-04-19T06:08:06.082Z,8.91
2023-04-19T06:09:06.095Z,8.91
2023-04-19T06:11:02.587Z,9.08
2023-04-19T06:11:59.292Z,8.93
2023-04-19T06:14:03.370Z,9.00
2023-04-19T06:15:03.402Z,9.01
2023-04-19T06:16:56.591Z,9.19
2023-04-19T06:17:57.995Z,9.23
2023-04-19T06:19:49.740Z,9.27
2023-04-19T06:20:49.770Z,9.30
2023-04-19T06:22:42.809Z,9.34
2023-04-19T06:23:42.791Z,9.26
2023-04-19T06:25:46.856Z,9.34
2023-04-19T06:26:46.883Z,9.42
2023-04-19T06:28:50.954Z,9.62
2023-04-19T06:29:51.366Z,9.70
2023-04-19T06:31:44.253Z,9.85
2023-04-19T06:32:44.222Z,9.83
2023-04-19T06:34:37.414Z,9.83
2023-04-19T06:35:37.342Z,9.85
2023-04-19T06:36:37.389Z,9.80
2023-04-19T06:37:37.418Z,9.91
2023-04-19T06:38:37.453Z,9.83
2023-04-19T06:39:37.578Z,9.96
2023-04-19T06:40:37.503Z,9.91
2023-04-19T06:41:37.536Z,10.06
2023-04-19T06:42:37.562Z,10.04
2023-04-19T06:43:37.631Z,10.20
2023-04-19T06:44:37.675Z,10.17
2023-04-19T06:45:37.723Z,10.22
2023-04-19T06:46:37.691Z,10.25
2023-04-19T06:47:37.760Z,10.42
2023-04-19T06:48:37.766Z,10.38
2023-04-19T06:49:37.805Z,10.43
2023-04-19T06:50:37.827Z,10.34
2023-04-19T06:51:37.854Z,10.43
2023-04-19T06:52:37.877Z,10.34
2023-04-19T06:53:37.928Z,10.43
2023-04-19T06:54:38.105Z,10.57
2023-04-19T06:55:37.998Z,10.68
2023-04-19T06:56:38.010Z,10.60
2023-04-19T06:57:38.026Z,10.73
2023-04-19T06:58:38.071Z,10.72
2023-04-19T06:59:38.100Z,10.73
2023-04-19T07:00:38.145Z,10.76
2023-04-19T07:01:38.208Z,10.66
2023-04-19T07:02:38.291Z,10.72
2023-04-19T07:03:38.321Z,10.81
2023-04-19T07:04:38.526Z,10.88
2023-04-19T07:05:38.315Z,10.95
2023-04-19T07:06:38.355Z,11.12
2023-04-19T07:07:38.359Z,11.17
2023-04-19T07:08:49.433Z,11.20
2023-04-19T07:09:38.424Z,11.23
2023-04-19T07:10:38.438Z,11.30
2023-04-19T07:11:38.473Z,11.30
2023-04-19T07:12:38.546Z,11.30
2023-04-19T07:13:38.539Z,11.41
2023-04-19T07:14:38.601Z,11.49
2023-04-19T07:15:38.663Z,11.51
2023-04-19T07:16:38.652Z,11.66
2023-04-19T07:17:38.819Z,11.62
2023-04-19T07:18:38.717Z,11.75
2023-04-19T07:19:38.744Z,11.69
2023-04-19T07:20:38.821Z,11.79
2023-04-19T07:21:38.790Z,11.90
2023-04-19T07:22:38.830Z,11.84
2023-04-19T07:23:38.896Z,11.96
2023-04-19T07:24:38.899Z,11.93
2023-04-19T07:25:38.902Z,11.96
2023-04-19T07:26:38.956Z,11.90
2023-04-19T07:27:39.100Z,11.90
2023-04-19T07:28:39.020Z,11.96
2023-04-19T07:29:39.045Z,12.08
2023-04-19T07:30:39.089Z,12.15
2023-04-19T07:31:39.177Z,12.22
2023-04-19T07:32:39.322Z,12.36
2023-04-19T07:33:39.177Z,12.36
2023-04-19T07:34:39.224Z,12.49
2023-04-19T07:35:39.264Z,12.48
2023-04-19T07:36:39.279Z,12.41
2023-04-19T07:37:39.311Z,12.41
2023-04-19T07:38:39.363Z,12.51
2023-04-19T07:39:39.389Z,12.52
2023-04-19T07:40:39.408Z,12.52
2023-04-19T07:41:39.440Z,12.63
2023-04-19T07:42:39.463Z,12.70
2023-04-19T07:43:41.052Z,12.66
2023-04-19T07:44:39.536Z,12.79
2023-04-19T07:45:39.567Z,12.84
2023-04-19T07:46:39.651Z,12.71
2023-04-19T07:47:39.723Z,12.87
2023-04-19T07:48:39.665Z,12.84
2023-04-19T07:49:39.698Z,12.81
2023-04-19T07:50:39.732Z,12.89
2023-04-19T07:51:39.765Z,12.84
2023-04-19T07:52:39.801Z,12.96
2023-04-19T07:53:39.817Z,12.91
2023-04-19T07:54:39.851Z,12.95
2023-04-19T07:55:39.890Z,12.96
2023-04-19T07:56:39.935Z,13.07
2023-04-19T07:57:39.964Z,13.22
2023-04-19T07:58:40.000Z,13.29
2023-04-19T07:59:40.057Z,13.32
2023-04-19T08:00:40.083Z,13.35
2023-04-19T08:01:40.256Z,13.48
2023-04-19T08:02:40.214Z,13.57
2023-04-19T08:03:40.388Z,13.57
2023-04-19T08:04:40.396Z,13.66
2023-04-19T08:05:40.342Z,13.73
2023-04-19T08:06:40.271Z,13.79
2023-04-19T08:07:40.298Z,13.75
2023-04-19T08:08:40.321Z,13.79
2023-04-19T08:09:40.388Z,13.91
2023-04-19T08:10:40.385Z,13.94
2023-04-19T08:11:40.424Z,14.13
2023-04-19T08:12:47.285Z,14.08
2023-04-19T08:13:40.546Z,14.17
2023-04-19T08:14:51.578Z,14.21
2023-04-19T08:17:42.411Z,14.26
2023-04-19T08:18:40.655Z,14.34
2023-04-19T08:19:40.696Z,14.27
2023-04-19T08:20:40.715Z,14.31
2023-04-19T08:21:41.725Z,14.44
2023-04-19T08:22:40.810Z,14.46
2023-04-19T08:23:47.936Z,14.45
2023-04-19T08:24:40.861Z,14.45
2023-04-19T08:25:40.907Z,14.59
2023-04-19T08:26:40.935Z,14.56
2023-04-19T08:27:40.976Z,14.56
2023-04-19T08:28:41.001Z,14.64
2023-04-19T08:29:41.042Z,14.75
2023-04-19T08:30:41.073Z,14.74
2023-04-19T08:31:41.139Z,14.74
2023-04-19T08:32:41.245Z,14.69
2023-04-19T08:33:41.181Z,14.57
2023-04-19T08:34:41.190Z,14.52
2023-04-19T08:35:41.339Z,14.44
2023-04-19T08:36:48.431Z,14.44
2023-04-19T08:37:41.305Z,14.42
2023-04-19T08:38:44.546Z,14.56
2023-04-19T08:39:41.363Z,14.61
2023-04-19T08:40:41.409Z,14.67
2023-04-19T08:41:41.435Z,14.67
2023-04-19T08:42:41.475Z,14.66
2023-04-19T08:43:41.845Z,14.78
2023-04-19T08:44:53.808Z,14.80
2023-04-19T08:45:41.607Z,14.86
2023-04-19T08:46:41.613Z,14.83
2023-04-19T08:48:41.708Z,14.83
2023-04-19T08:49:43.265Z,15.00
2023-04-19T08:50:56.003Z,14.95
2023-04-19T08:51:41.780Z,14.91
2023-04-19T08:52:54.236Z,14.90
2023-04-19T08:53:41.855Z,14.95
2023-04-19T08:54:41.890Z,15.01
2023-04-19T08:55:51.014Z,15.00
2023-04-19T08:56:41.949Z,14.91
2023-04-19T08:57:41.998Z,14.94
2023-04-19T08:59:42.062Z,14.95
2023-04-19T09:00:42.086Z,14.90
2023-04-19T09:01:44.510Z,14.94
2023-04-19T09:02:42.260Z,14.80
2023-04-19T09:03:58.420Z,14.87
2023-04-19T09:04:42.383Z,14.80
2023-04-19T09:05:42.360Z,14.67
2023-04-19T09:06:42.596Z,14.80
2023-04-19T09:07:42.342Z,14.80
2023-04-19T09:08:42.367Z,14.69
2023-04-19T09:09:51.937Z,14.69
2023-04-19T09:10:42.435Z,14.66
2023-04-19T09:11:42.473Z,14.80
2023-04-19T09:12:42.524Z,14.82
2023-04-19T09:13:42.544Z,14.91
2023-04-19T09:14:47.449Z,14.95
2023-04-19T09:15:42.638Z,15.16
2023-04-19T09:16:42.635Z,15.13
2023-04-19T09:17:42.702Z,15.23
2023-04-19T09:18:56.243Z,15.34
2023-04-19T09:19:42.757Z,15.23
2023-04-19T09:20:42.785Z,15.33
2023-04-19T09:21:42.797Z,15.27
2023-04-19T09:22:42.849Z,15.20
2023-04-19T09:23:42.880Z,15.25
2023-04-19T09:26:11.359Z,15.16
2023-04-19T09:26:43.094Z,15.16
2023-04-19T09:27:43.036Z,15.15
2023-04-19T09:28:43.065Z,15.22
2023-04-19T09:29:43.093Z,15.27
2023-04-19T09:30:55.156Z,15.09
2023-04-19T09:31:51.678Z,15.12
2023-04-19T09:32:43.245Z,15.15
2023-04-19T09:33:43.302Z,15.16
2023-04-19T09:34:43.261Z,15.20
2023-04-19T09:35:43.610Z,15.28
2023-04-19T09:36:43.345Z,15.46
2023-04-19T09:38:43.406Z,15.62
2023-04-19T09:39:43.440Z,15.58
2023-04-19T09:40:43.504Z,15.66
2023-04-19T09:41:43.717Z,15.71
2023-04-19T09:45:20.951Z,16.06
2023-04-19T09:45:43.655Z,16.11
2023-04-19T09:46:43.696Z,16.18
2023-04-19T09:47:43.726Z,16.11
2023-04-19T09:48:43.750Z,15.99
2023-04-19T09:49:49.276Z,16.13
2023-04-19T09:50:54.916Z,16.23
2023-04-19T09:51:44.031Z,16.47
2023-04-19T09:52:43.897Z,16.60
2023-04-19T09:53:43.908Z,16.69
2023-04-19T09:54:43.964Z,16.72
2023-04-19T09:55:57.047Z,16.67
2023-04-19T09:56:44.034Z,16.73
2023-04-19T09:57:44.054Z,16.87
2023-04-19T09:58:51.388Z,16.95
2023-04-19T09:59:44.174Z,17.18
2023-04-19T10:00:50.040Z,17.25
2023-04-19T10:01:44.220Z,17.33
2023-04-19T10:02:44.337Z,17.49
2023-04-19T10:03:44.484Z,17.55
2023-04-19T10:05:44.413Z,17.83
2023-04-19T10:07:06.781Z,17.96
2023-04-19T10:07:44.470Z,18.01
2023-04-19T10:08:44.456Z,18.07
2023-04-19T10:09:52.919Z,18.09
2023-04-19T10:10:45.578Z,18.19
2023-04-19T10:11:47.852Z,18.28
2023-04-19T10:13:44.641Z,18.44
2023-04-19T10:14:44.653Z,18.46
2023-04-19T10:15:51.324Z,18.53
2023-04-19T10:16:44.767Z,18.64
2023-04-19T10:17:44.856Z,18.64
2023-04-19T10:18:44.785Z,18.65
2023-04-19T10:19:44.869Z,18.62
2023-04-19T10:20:44.876Z,18.56
2023-04-19T10:21:44.945Z,18.56
2023-04-19T10:22:44.961Z,18.66
2023-04-19T10:23:45.084Z,18.74
2023-04-19T10:24:46.199Z,18.74
2023-04-19T10:25:45.073Z,18.74
2023-04-19T10:26:45.105Z,18.66
2023-04-19T10:27:45.137Z,18.57
2023-04-19T10:28:45.173Z,18.51
2023-04-19T10:29:45.209Z,18.28
2023-04-19T10:30:45.242Z,18.05
2023-04-19T10:31:45.322Z,18.16
2023-04-19T10:32:45.328Z,18.29
2023-04-19T10:33:45.353Z,18.47
2023-04-19T10:34:45.388Z,18.60
2023-04-19T10:35:45.422Z,18.75
2023-04-19T10:36:45.460Z,18.89
2023-04-19T10:37:45.493Z,18.90
2023-04-19T10:38:45.530Z,19.02
2023-04-19T10:39:45.584Z,19.06
2023-04-19T10:40:45.610Z,19.09
2023-04-19T10:41:45.638Z,19.07
2023-04-19T10:42:45.677Z,19.12
2023-04-19T10:43:45.720Z,19.15
2023-04-19T10:44:45.749Z,19.15
2023-04-19T10:45:45.792Z,19.09
2023-04-19T10:46:45.832Z,19.12
2023-04-19T10:47:45.890Z,18.93
2023-04-19T10:48:45.898Z,18.96
2023-04-19T10:49:45.917Z,18.91
2023-04-19T10:50:45.974Z,18.93
2023-04-19T10:51:46.002Z,18.79
2023-04-19T10:52:46.044Z,18.75
2023-04-19T10:53:46.080Z,18.83
2023-04-19T10:54:46.111Z,18.75
2023-04-19T10:55:46.152Z,18.83
2023-04-19T10:56:46.194Z,18.76
2023-04-19T10:57:46.224Z,18.84
2023-04-19T10:58:48.086Z,18.84
2023-04-19T10:59:46.297Z,18.87
2023-04-19T11:00:46.341Z,19.01
2023-04-19T11:01:46.497Z,19.07
2023-04-19T11:02:46.572Z,19.07
2023-04-19T11:03:46.597Z,19.12
2023-04-19T11:04:46.577Z,19.06
2023-04-19T11:05:46.532Z,19.09
2023-04-19T11:06:46.545Z,19.09
2023-04-19T11:07:46.595Z,19.07
2023-04-19T11:08:46.633Z,19.13
2023-04-19T11:09:46.659Z,19.12
2023-04-19T11:10:46.691Z,19.12
2023-04-19T11:11:46.734Z,19.15
2023-04-19T11:12:46.786Z,19.17
2023-04-19T11:13:46.808Z,19.21
2023-04-19T11:14:46.847Z,19.23
2023-04-19T11:15:46.968Z,19.15
2023-04-19T11:16:47.009Z,19.20
2023-04-19T11:17:47.143Z,19.28
2023-04-19T11:18:46.992Z,19.45
2023-04-19T11:19:47.050Z,19.52
2023-04-19T11:20:47.068Z,19.55
2023-04-19T11:21:47.115Z,19.62
2023-04-19T11:22:47.156Z,19.71
2023-04-19T11:23:47.205Z,19.76
2023-04-19T11:24:47.237Z,19.83
2023-04-19T11:25:47.280Z,19.71
2023-04-19T11:26:47.339Z,19.57
2023-04-19T11:27:47.487Z,19.53
2023-04-19T11:28:47.398Z,19.42
2023-04-19T11:29:47.413Z,19.17
2023-04-19T11:30:47.434Z,18.97
2023-04-19T11:31:47.611Z,18.86
2023-04-19T11:32:47.578Z,18.66
2023-04-19T11:33:47.551Z,18.66
2023-04-19T11:34:54.794Z,18.53
2023-04-19T11:36:40.757Z,18.32
2023-04-19T11:37:40.793Z,18.10
2023-04-19T11:39:34.049Z,17.68
2023-04-19T11:40:34.067Z,17.70
2023-04-19T11:42:38.194Z,17.77
2023-04-19T11:43:38.283Z,17.86
2023-04-19T11:45:34.527Z,17.58
2023-04-19T11:46:31.402Z,17.57
2023-04-19T11:48:24.366Z,17.39
2023-04-19T11:49:24.398Z,17.42
2023-04-19T11:51:28.557Z,17.32
2023-04-19T11:52:28.578Z,17.18
2023-04-19T11:54:32.652Z,16.91
2023-04-19T11:55:32.693Z,16.75
2023-04-19T11:57:26.385Z,16.66
2023-04-19T11:58:26.388Z,16.69
2023-04-19T12:00:19.607Z,16.73
2023-04-19T12:01:19.672Z,16.82
2023-04-19T12:03:13.249Z,16.69
2023-04-19T12:04:13.270Z,16.57
2023-04-19T12:06:17.252Z,16.55
2023-04-19T12:07:17.212Z,16.62
2023-04-19T12:09:10.397Z,16.75
2023-04-19T12:10:10.426Z,16.78
2023-04-19T12:12:14.500Z,16.88
2023-04-19T12:13:14.519Z,16.73
2023-04-19T12:15:07.755Z,16.70
2023-04-19T12:16:07.764Z,16.70
2023-04-19T12:18:01.032Z,16.60
2023-04-19T12:19:00.934Z,16.42
2023-04-19T12:20:54.106Z,16.55
2023-04-19T12:21:54.145Z,16.63
2023-04-19T12:23:47.360Z,16.60
2023-04-19T12:24:47.384Z,16.62
2023-04-19T12:26:52.576Z,16.54
2023-04-19T12:27:51.500Z,16.50
2023-04-19T12:29:44.644Z,16.55
2023-04-19T12:30:44.693Z,16.63
2023-04-19T12:32:48.804Z,16.52
2023-04-19T12:33:48.784Z,16.55
2023-04-19T12:35:41.839Z,16.80
2023-04-19T12:36:41.870Z,16.84
2023-04-19T12:38:35.053Z,16.72
2023-04-19T12:39:35.068Z,16.69
2023-04-19T12:41:28.400Z,16.45
2023-04-19T12:42:28.362Z,16.44
2023-04-19T12:44:21.658Z,16.30
2023-04-19T12:45:21.595Z,16.25
2023-04-19T12:47:14.761Z,16.25
2023-04-19T12:48:14.889Z,16.25
2023-04-19T12:50:07.988Z,16.34
2023-04-19T12:51:08.012Z,16.50
2023-04-19T12:53:01.108Z,16.67
2023-04-19T12:54:01.109Z,16.73
2023-04-19T12:56:05.177Z,17.07
2023-04-19T12:57:05.209Z,17.28
2023-04-19T12:59:09.420Z,17.27
2023-04-19T13:00:09.372Z,17.40
2023-04-19T13:02:02.587Z,17.70
2023-04-19T13:03:02.782Z,17.86
2023-04-19T13:04:55.893Z,18.09
2023-04-19T13:05:55.788Z,18.20
2023-04-19T13:07:59.873Z,18.47
2023-04-19T13:09:01.442Z,18.66
2023-04-19T13:09:59.945Z,18.79
2023-04-19T13:10:59.988Z,18.87
2023-04-19T13:12:00.027Z,19.02
2023-04-19T13:13:00.052Z,19.10
2023-04-19T13:14:00.108Z,19.17
2023-04-19T13:15:01.958Z,19.30
2023-04-19T13:16:00.188Z,19.25
2023-04-19T13:17:00.188Z,19.30
2023-04-19T13:18:00.287Z,19.27
2023-04-19T13:19:00.260Z,19.31
2023-04-19T13:20:00.307Z,19.24
2023-04-19T13:21:00.337Z,19.25
2023-04-19T13:22:00.391Z,19.17
2023-04-19T13:23:00.403Z,19.09
2023-04-19T13:24:00.455Z,19.16
2023-04-19T13:25:00.480Z,19.27
2023-04-19T13:26:00.537Z,19.25
2023-04-19T13:27:00.602Z,19.30
2023-04-19T13:28:00.598Z,19.15
2023-04-19T13:29:00.625Z,19.25
2023-04-19T13:30:00.674Z,19.32
2023-04-19T13:31:00.749Z,19.40
2023-04-19T13:32:00.739Z,19.30
2023-04-19T13:33:00.828Z,19.15
2023-04-19T13:34:00.796Z,18.99
2023-04-19T13:35:00.846Z,18.97
2023-04-19T13:36:00.898Z,18.68
2023-04-19T13:37:00.917Z,18.62
2023-04-19T13:38:00.994Z,18.42
2023-04-19T13:39:00.992Z,18.42
2023-04-19T13:40:14.983Z,18.23
2023-04-19T13:41:01.070Z,17.96
2023-04-19T13:42:01.124Z,17.91
2023-04-19T13:43:01.144Z,17.76
2023-04-19T13:44:01.173Z,17.73
2023-04-19T13:45:01.235Z,17.62
2023-04-19T13:46:01.269Z,17.55
2023-04-19T13:47:01.409Z,17.58
2023-04-19T13:48:01.383Z,17.42
2023-04-19T13:49:01.375Z,17.28
2023-04-19T13:50:01.408Z,17.28
2023-04-19T13:51:01.443Z,17.21
2023-04-19T13:52:01.512Z,17.18
2023-04-19T13:53:01.789Z,17.09
2023-04-19T13:54:01.545Z,16.96
2023-04-19T13:55:01.577Z,16.77
2023-04-19T13:56:01.625Z,16.72
2023-04-19T13:57:01.647Z,16.57
2023-04-19T13:58:01.687Z,16.52
2023-04-19T13:59:01.823Z,16.45
2023-04-19T14:00:01.779Z,16.40
2023-04-19T14:01:01.855Z,16.22
2023-04-19T14:02:01.910Z,16.18
2023-04-19T14:03:01.931Z,16.10
2023-04-19T14:04:02.155Z,16.06
2023-04-19T14:05:01.945Z,16.04